Time;durP1;ratioP1;P1;durP2;ratioP2;P2;SDS_P1;SDS_P2;PMS_P1;PMS_P2;Temp;Humidity;BMP_temperature;BMP_pressure;BME280_temperature;BME280_humidity;BME280_pressure;Samples;Min_cycle;Max_cycle;Signal;HPM_P1;HPM_P2
2023/11/20 00:01:27;;;;;;;10.87;2.20;;;9.40;99.90;;;;;;6216188;23;20158;-58
2023/11/20 00:03:53;;;;;;;11.40;2.93;;;9.40;99.90;;;;;;6215881;23;20414;-58
2023/11/20 00:06:19;;;;;;;14.43;3.23;;;9.30;99.90;;;;;;6216836;23;20252;-55
2023/11/20 00:08:45;;;;;;;9.20;2.57;;;9.20;99.90;;;;;;6216527;23;20516;-58
2023/11/20 00:11:13;;;;;;;11.83;3.27;;;9.30;99.90;;;;;;6216746;23;20377;-58
2023/11/20 00:13:38;;;;;;;8.10;2.73;;;9.20;99.90;;;;;;6215396;23;20150;-55
2023/11/20 00:16:04;;;;;;;14.00;3.50;;;9.20;99.90;;;;;;6215586;23;20427;-57
2023/11/20 00:18:29;;;;;;;11.03;2.57;;;9.10;99.90;;;;;;6217240;23;20139;-56
2023/11/20 00:20:55;;;;;;;8.67;2.30;;;9.10;99.90;;;;;;6217617;23;20533;-58
2023/11/20 00:23:22;;;;;;;9.33;2.80;;;9.10;99.90;;;;;;6217243;23;20194;-58
2023/11/20 00:25:48;;;;;;;10.73;3.07;;;9.10;99.90;;;;;;6192312;23;20441;-56
2023/11/20 00:28:14;;;;;;;9.83;2.53;;;9.10;99.90;;;;;;6217031;23;20361;-60
2023/11/20 00:30:39;;;;;;;15.83;4.00;;;9.10;99.90;;;;;;6217143;23;20142;-60
2023/11/20 00:33:05;;;;;;;10.43;2.53;;;9.10;99.90;;;;;;6217927;23;20471;-58
2023/11/20 00:35:30;;;;;;;5.80;2.30;;;9.20;99.90;;;;;;6217175;23;20292;-57
2023/11/20 00:37:56;;;;;;;10.90;2.93;;;9.20;48.60;;;;;;6216232;23;20222;-59
2023/11/20 00:40:22;;;;;;;14.20;3.10;;;9.20;19.10;;;;;;6216318;23;20443;-58
2023/11/20 00:42:48;;;;;;;13.43;3.03;;;9.20;15.80;;;;;;6216409;23;20209;-56
2023/11/20 00:45:13;;;;;;;10.00;2.83;;;9.10;73.60;;;;;;6217821;23;20153;-58
2023/11/20 00:47:39;;;;;;;7.00;2.77;;;9.10;90.30;;;;;;6218004;23;20187;-60
2023/11/20 00:50:05;;;;;;;10.77;3.27;;;9.10;99.90;;;;;;6217417;23;20147;-57
2023/11/20 00:52:31;;;;;;;8.70;2.20;;;9.10;99.90;;;;;;6217625;23;20154;-58
2023/11/20 00:54:58;;;;;;;9.13;3.20;;;9.10;99.90;;;;;;6217739;23;20838;-60
2023/11/20 00:57:24;;;;;;;10.30;3.20;;;9.10;99.90;;;;;;6217729;23;20511;-57
2023/11/20 00:59:50;;;;;;;12.57;3.80;;;9.30;99.90;;;;;;6215752;23;20743;-59
2023/11/20 01:02:15;;;;;;;10.50;2.93;;;9.40;99.90;;;;;;6216328;23;20158;-58
2023/11/20 01:04:41;;;;;;;9.70;2.70;;;9.70;99.90;;;;;;6216751;23;20208;-60
2023/11/20 01:07:07;;;;;;;12.00;3.27;;;9.90;99.90;;;;;;6216522;23;20296;-55
2023/11/20 01:09:32;;;;;;;8.53;2.93;;;10.00;1.00;;;;;;6217890;23;20194;-58
2023/11/20 01:11:58;;;;;;;6.67;2.73;;;9.90;99.90;;;;;;6217619;23;20523;-57
2023/11/20 01:14:24;;;;;;;6.73;2.70;;;9.80;84.70;;;;;;6218120;23;20150;-54
2023/11/20 01:16:49;;;;;;;5.67;2.47;;;9.80;27.60;;;;;;6217841;23;20149;-59
2023/11/20 01:19:15;;;;;;;7.60;2.50;;;9.70;26.00;;;;;;6217366;23;20161;-58
2023/11/20 01:21:42;;;;;;;6.40;2.60;;;9.70;92.50;;;;;;6217522;23;20473;-58
2023/11/20 01:24:08;;;;;;;10.70;2.50;;;9.70;99.90;;;;;;6218287;23;20196;-58
2023/11/20 01:26:35;;;;;;;10.03;2.53;;;9.60;99.90;;;;;;6219768;23;20428;-57
2023/11/20 01:29:01;;;;;;;9.33;3.40;;;9.60;99.90;;;;;;6218795;23;20165;-56
2023/11/20 01:31:27;;;;;;;8.47;2.10;;;9.60;99.90;;;;;;6219094;23;20876;-56
2023/11/20 01:33:52;;;;;;;17.30;3.17;;;9.60;99.90;;;;;;6219658;23;20195;-57
2023/11/20 01:36:18;;;;;;;11.33;3.10;;;9.60;99.90;;;;;;6219014;23;20161;-58
2023/11/20 01:38:43;;;;;;;8.33;2.17;;;9.60;99.90;;;;;;6220419;23;20165;-58
2023/11/20 01:41:09;;;;;;;6.20;2.20;;;9.60;99.90;;;;;;6219830;23;20169;-58
2023/11/20 01:43:36;;;;;;;7.20;2.20;;;9.60;1.00;;;;;;6218902;23;20158;-58
2023/11/20 01:46:07;;;;;;;6.00;2.60;;;9.60;1.00;;;;;;6218540;23;20185;-58
2023/11/20 01:48:33;;;;;;;15.00;2.30;;;9.60;1.00;;;;;;6192210;23;20696;-58
2023/11/20 01:50:59;;;;;;;7.87;2.07;;;9.70;1.00;;;;;;6218564;23;20389;-58
2023/11/20 01:53:25;;;;;;;8.80;2.00;;;9.60;1.00;;;;;;6192831;23;20381;-59
2023/11/20 01:55:53;;;;;;;9.80;3.20;;;9.60;1.00;;;;;;6218592;23;20429;-60
2023/11/20 01:58:20;;;;;;;9.63;3.03;;;9.70;1.00;;;;;;6218423;23;20640;-55
2023/11/20 02:00:46;;;;;;;6.57;2.60;;;9.60;1.00;;;;;;6219216;23;20345;-54
2023/11/20 02:03:12;;;;;;;10.23;2.40;;;9.70;1.00;;;;;;6219242;23;20832;-57
2023/11/20 02:05:38;;;;;;;6.50;2.30;;;9.70;1.00;;;;;;6193162;23;20169;-57
2023/11/20 02:08:03;;;;;;;6.73;2.50;;;9.70;99.90;;;;;;6219041;23;20373;-57
2023/11/20 02:10:29;;;;;;;10.57;2.10;;;9.80;99.90;;;;;;6218692;23;20546;-55
2023/11/20 02:12:58;;;;;;;7.70;2.27;;;9.70;1.00;;;;;;6219680;23;20233;-56
2023/11/20 02:15:24;;;;;;;9.00;2.63;;;9.70;1.00;;;;;;6192747;23;20269;-54
2023/11/20 02:17:49;;;;;;;5.60;2.50;;;9.70;99.90;;;;;;6193222;23;20783;-55
2023/11/20 02:20:15;;;;;;;8.53;2.43;;;9.80;99.90;;;;;;6218618;23;20491;-56
2023/11/20 02:22:40;;;;;;;5.17;2.30;;;9.90;99.90;;;;;;6191982;23;20204;-56
2023/11/20 02:25:07;;;;;;;8.90;2.27;;;9.90;99.90;;;;;;6217322;23;20221;-58
2023/11/20 02:28:17;;;;;;;6.27;2.00;;;9.90;99.90;;;;;;6192363;23;20162;-55
2023/11/20 02:30:44;;;;;;;8.77;2.20;;;9.90;99.90;;;;;;6166981;23;20404;-56
2023/11/20 02:33:09;;;;;;;7.43;2.43;;;9.90;7.40;;;;;;6217677;23;20432;-57
2023/11/20 02:35:35;;;;;;;11.73;2.40;;;10.00;1.00;;;;;;6219221;23;20648;-56
2023/11/20 02:38:00;;;;;;;5.50;2.60;;;9.90;1.00;;;;;;6218568;23;20150;-57
2023/11/20 02:40:26;;;;;;;8.80;2.20;;;10.00;1.00;;;;;;6219497;23;20237;-57
2023/11/20 02:42:51;;;;;;;7.17;2.00;;;10.00;1.00;;;;;;6219361;23;20134;-55
2023/11/20 02:45:17;;;;;;;6.50;2.50;;;10.00;1.00;;;;;;6219423;23;20252;-55
2023/11/20 02:47:42;;;;;;;6.50;2.50;;;10.00;1.00;;;;;;6219841;23;20282;-57
2023/11/20 02:50:08;;;;;;;11.30;2.67;;;10.00;1.00;;;;;;6219079;23;20150;-56
2023/11/20 02:52:34;;;;;;;8.80;2.50;;;10.00;99.90;;;;;;6218672;23;20200;-57
2023/11/20 02:54:59;;;;;;;5.70;2.13;;;10.10;99.90;;;;;;6219319;23;20209;-54
2023/11/20 02:57:26;;;;;;;10.10;2.40;;;10.00;99.90;;;;;;6218712;23;20218;-58
2023/11/20 02:59:51;;;;;;;4.80;1.93;;;10.10;99.90;;;;;;6219908;23;20158;-59
2023/11/20 03:02:19;;;;;;;6.67;2.80;;;10.10;42.20;;;;;;6219347;23;20400;-58
2023/11/20 03:04:45;;;;;;;8.47;3.53;;;10.20;32.30;;;;;;6219663;23;20219;-55
2023/11/20 03:07:10;;;;;;;9.33;1.87;;;10.10;99.90;;;;;;6218490;23;20409;-58
2023/11/20 03:09:36;;;;;;;10.90;2.17;;;10.10;99.90;;;;;;6217632;23;20158;-57
2023/11/20 03:12:03;;;;;;;3.60;1.80;;;10.10;11.40;;;;;;6217424;23;20165;-58
2023/11/20 03:14:29;;;;;;;11.87;2.60;;;10.20;21.00;;;;;;6218840;23;20385;-55
2023/11/20 03:16:54;;;;;;;7.90;2.50;;;10.20;99.90;;;;;;6218214;23;20418;-59
2023/11/20 03:19:20;;;;;;;6.50;2.30;;;10.10;99.90;;;;;;6216643;23;20153;-57
2023/11/20 03:21:46;;;;;;;7.33;1.80;;;10.20;99.90;;;;;;6190325;23;20564;-55
2023/11/20 03:24:12;;;;;;;5.50;2.00;;;10.10;99.90;;;;;;6217231;23;20150;-57
2023/11/20 03:26:37;;;;;;;10.07;2.03;;;10.10;99.90;;;;;;6216946;23;20530;-57
2023/11/20 03:29:03;;;;;;;8.00;2.23;;;10.10;99.90;;;;;;6215713;23;20601;-53
2023/11/20 03:31:36;;;;;;;11.70;3.13;;;10.10;99.90;;;;;;6217161;23;20154;-56
2023/11/20 03:34:03;;;;;;;7.63;2.10;;;10.00;99.90;;;;;;6218031;23;20217;-55
2023/11/20 03:36:33;;;;;;;12.37;3.20;;;10.00;1.00;;;;;;6218395;23;20387;-59
2023/11/20 03:39:00;;;;;;;11.20;1.93;;;10.00;99.90;;;;;;6218703;23;20384;-57
2023/11/20 03:41:26;;;;;;;10.40;2.70;;;10.00;99.90;;;;;;6217984;23;20388;-58
2023/11/20 03:43:51;;;;;;;10.40;2.50;;;10.00;1.00;;;;;;6217455;23;20443;-54
2023/11/20 03:46:17;;;;;;;9.33;1.73;;;9.90;1.00;;;;;;6218247;23;20181;-57
2023/11/20 03:48:42;;;;;;;5.67;1.87;;;9.90;1.00;;;;;;6219004;23;20130;-56
2023/11/20 03:51:10;;;;;;;6.00;2.50;;;9.90;1.00;;;;;;6191692;23;20150;-59
2023/11/20 03:53:36;;;;;;;10.47;2.80;;;9.90;1.00;;;;;;6192575;23;20233;-57
2023/11/20 03:56:01;;;;;;;9.30;2.37;;;9.90;1.00;;;;;;6191733;23;20405;-56
2023/11/20 03:58:27;;;;;;;6.43;2.30;;;9.90;1.00;;;;;;6218245;23;20158;-57
2023/11/20 04:00:53;;;;;;;8.03;2.53;;;9.90;1.00;;;;;;6192839;23;20145;-55
2023/11/20 04:03:20;;;;;;;6.50;1.80;;;9.80;1.00;;;;;;6218294;23;20401;-59
2023/11/20 04:05:48;;;;;;;15.03;2.37;;;9.80;1.00;;;;;;6218608;23;20257;-58
2023/11/20 04:08:13;;;;;;;6.70;2.43;;;9.80;1.00;;;;;;6218591;23;20374;-54
2023/11/20 04:10:39;;;;;;;7.63;2.50;;;9.80;1.00;;;;;;6218416;23;20466;-59
2023/11/20 04:13:05;;;;;;;7.60;2.23;;;9.80;1.00;;;;;;6191558;23;20185;-55
2023/11/20 04:15:31;;;;;;;7.50;1.97;;;9.80;1.00;;;;;;6218373;23;20135;-58
2023/11/20 04:17:56;;;;;;;8.33;2.27;;;9.80;99.90;;;;;;6217750;23;20403;-57
2023/11/20 04:20:22;;;;;;;6.10;2.20;;;9.80;99.90;;;;;;6218413;23;20165;-55
2023/11/20 04:22:49;;;;;;;6.37;1.87;;;9.80;99.90;;;;;;6218251;23;20268;-57
2023/11/20 04:25:14;;;;;;;10.10;2.97;;;9.80;99.90;;;;;;6217989;23;20206;-56
2023/11/20 04:27:40;;;;;;;7.50;2.70;;;9.70;99.90;;;;;;6215716;23;20519;-55
2023/11/20 04:30:08;;;;;;;9.13;2.90;;;9.70;99.90;;;;;;6188898;23;20158;-57
2023/11/20 04:32:33;;;;;;;4.90;2.00;;;9.70;99.90;;;;;;6216832;23;20173;-56
2023/11/20 04:34:59;;;;;;;8.17;2.87;;;9.70;95.70;;;;;;6217868;23;20462;-57
2023/11/20 04:37:24;;;;;;;10.93;3.53;;;9.70;1.00;;;;;;6215955;23;20449;-56
2023/11/20 04:39:52;;;;;;;6.67;2.10;;;9.70;99.90;;;;;;6215947;23;20138;-58
2023/11/20 04:42:17;;;;;;;11.40;2.93;;;9.80;99.90;;;;;;6216078;23;20211;-56
2023/11/20 04:44:43;;;;;;;13.40;2.83;;;9.80;85.40;;;;;;6216378;23;20805;-56
2023/11/20 04:47:08;;;;;;;9.83;4.23;;;9.80;1.00;;;;;;6217137;23;20216;-56
2023/11/20 04:49:34;;;;;;;9.70;3.00;;;9.80;1.00;;;;;;6216065;23;20370;-54
2023/11/20 04:52:00;;;;;;;8.03;2.53;;;9.80;1.00;;;;;;6190067;23;20163;-56
2023/11/20 04:54:26;;;;;;;11.43;2.63;;;9.80;1.00;;;;;;6217368;23;20126;-53
2023/11/20 04:56:51;;;;;;;8.67;3.07;;;9.80;1.00;;;;;;6217688;23;20400;-58
2023/11/20 04:59:17;;;;;;;11.20;1.77;;;9.90;99.90;;;;;;6218109;23;20157;-57
2023/11/20 05:01:42;;;;;;;9.80;2.23;;;9.90;99.90;;;;;;6217211;23;20154;-58
2023/11/20 05:04:08;;;;;;;13.00;2.60;;;10.00;1.00;;;;;;6192050;23;20538;-58
2023/11/20 05:06:34;;;;;;;7.90;2.30;;;10.00;1.00;;;;;;6216206;23;20162;-56
2023/11/20 05:08:59;;;;;;;7.40;1.93;;;10.00;99.90;;;;;;6216893;23;20430;-56
2023/11/20 05:11:25;;;;;;;6.87;2.10;;;10.00;99.90;;;;;;6216036;23;20236;-57
2023/11/20 05:13:51;;;;;;;8.53;2.80;;;10.00;99.90;;;;;;6216785;23;20158;-59
2023/11/20 05:16:16;;;;;;;9.27;2.10;;;10.00;47.30;;;;;;6216695;23;20253;-56
2023/11/20 05:18:42;;;;;;;9.43;2.27;;;10.10;1.00;;;;;;6216524;23;20134;-56
2023/11/20 05:21:07;;;;;;;7.40;2.37;;;10.10;99.90;;;;;;6216590;23;20285;-56
2023/11/20 05:23:33;;;;;;;8.17;2.47;;;10.10;1.00;;;;;;6216495;23;20506;-56
2023/11/20 05:25:59;;;;;;;11.67;2.27;;;10.10;99.90;;;;;;6217645;23;20154;-55
2023/11/20 05:28:24;;;;;;;9.00;2.60;;;10.10;99.90;;;;;;6218105;23;20156;-57
2023/11/20 05:30:50;;;;;;;9.13;2.37;;;10.10;1.00;;;;;;6216612;23;20161;-56
2023/11/20 05:33:16;;;;;;;7.33;1.70;;;10.20;1.00;;;;;;6190998;23;20161;-57
2023/11/20 05:35:41;;;;;;;6.97;2.93;;;10.20;1.00;;;;;;6217783;23;20157;-54
2023/11/20 05:38:07;;;;;;;5.43;1.80;;;10.20;1.00;;;;;;6217997;23;20224;-58
2023/11/20 05:40:33;;;;;;;9.53;2.37;;;10.20;1.00;;;;;;6190397;23;20173;-58
2023/11/20 05:42:59;;;;;;;11.17;2.67;;;10.20;1.00;;;;;;6166449;23;20182;-57
2023/11/20 05:45:26;;;;;;;5.50;2.20;;;10.10;1.00;;;;;;6217597;23;20658;-55
2023/11/20 05:47:52;;;;;;;8.03;3.20;;;10.10;1.00;;;;;;6218375;23;20467;-55
2023/11/20 05:50:17;;;;;;;9.17;2.37;;;10.10;1.00;;;;;;6216883;23;20810;-57
2023/11/20 05:52:43;;;;;;;7.10;2.13;;;10.10;1.00;;;;;;6215753;23;20150;-58
2023/11/20 05:55:09;;;;;;;7.60;2.67;;;10.10;99.90;;;;;;6214574;23;20496;-57
2023/11/20 05:57:34;;;;;;;7.70;2.53;;;10.10;1.00;;;;;;6214648;23;20197;-57
2023/11/20 06:00:01;;;;;;;13.40;3.77;;;10.10;99.90;;;;;;6212395;23;20231;-56
2023/11/20 06:02:26;;;;;;;11.17;2.40;;;10.10;99.90;;;;;;6212153;23;20162;-57
2023/11/20 06:04:52;;;;;;;6.83;2.50;;;10.10;99.90;;;;;;6184940;23;20412;-56
2023/11/20 06:07:18;;;;;;;10.00;2.40;;;10.10;99.90;;;;;;6210435;23;20234;-56
2023/11/20 06:09:44;;;;;;;6.30;2.80;;;10.10;99.90;;;;;;6209749;23;20131;-56
2023/11/20 06:12:12;;;;;;;7.13;2.73;;;10.10;99.90;;;;;;6211314;23;20385;-56
2023/11/20 06:14:41;;;;;;;8.93;2.53;;;10.10;99.90;;;;;;6213366;23;20158;-56
2023/11/20 06:17:07;;;;;;;7.50;2.10;;;10.20;99.90;;;;;;6211348;23;20668;-58
2023/11/20 06:19:33;;;;;;;16.23;3.00;;;10.10;99.90;;;;;;6210416;23;20487;-57
2023/11/20 06:21:59;;;;;;;6.30;2.07;;;10.10;99.90;;;;;;6212688;23;20193;-56
2023/11/20 06:24:25;;;;;;;9.87;2.70;;;10.10;99.90;;;;;;6216218;23;20366;-56
2023/11/20 06:26:50;;;;;;;10.93;4.33;;;10.10;99.90;;;;;;6215234;23;20177;-60
2023/11/20 06:29:16;;;;;;;9.23;3.00;;;10.00;99.90;;;;;;6213898;23;20238;-57
2023/11/20 06:31:42;;;;;;;8.03;2.40;;;10.00;99.90;;;;;;6211939;23;20157;-56
2023/11/20 06:34:08;;;;;;;7.97;2.00;;;10.00;99.90;;;;;;6187495;23;20142;-56
2023/11/20 06:36:34;;;;;;;8.60;3.40;;;10.10;99.90;;;;;;6214985;23;20138;-56
2023/11/20 06:39:05;;;;;;;7.20;3.77;;;10.10;99.90;;;;;;6214774;23;20377;-56
2023/11/20 06:41:31;;;;;;;17.90;8.63;;;10.10;99.90;;;;;;6215485;23;20385;-56
2023/11/20 06:43:57;;;;;;;13.83;5.20;;;10.10;7.90;;;;;;6214177;23;20435;-58
2023/11/20 06:46:25;;;;;;;26.97;12.10;;;10.10;1.00;;;;;;6215232;23;20759;-58
2023/11/20 06:48:51;;;;;;;14.30;6.43;;;10.10;1.00;;;;;;6215400;23;20138;-55
2023/11/20 06:51:17;;;;;;;8.33;2.60;;;10.10;23.80;;;;;;6216052;23;20732;-57
2023/11/20 06:53:43;;;;;;;9.90;2.20;;;10.10;1.00;;;;;;6215966;23;20381;-58
2023/11/20 06:56:35;;;;;;;5.90;2.30;;;10.10;6.70;;;;;;6215824;23;20170;-58
2023/11/20 06:59:01;;;;;;;6.67;2.03;;;10.00;99.90;;;;;;6210750;23;20565;-57
2023/11/20 07:01:27;;;;;;;7.63;2.13;;;10.00;55.40;;;;;;6214723;23;20385;-58
2023/11/20 07:03:53;;;;;;;10.47;2.47;;;10.10;1.00;;;;;;6214484;23;20153;-58
2023/11/20 07:06:19;;;;;;;8.20;2.00;;;10.10;1.00;;;;;;6215233;23;20174;-57
2023/11/20 07:08:45;;;;;;;12.03;3.43;;;10.10;1.00;;;;;;6215237;23;20377;-59
2023/11/20 07:11:10;;;;;;;8.17;2.10;;;10.20;1.00;;;;;;6214889;23;20151;-54
2023/11/20 07:13:36;;;;;;;10.80;3.60;;;10.20;1.00;;;;;;6217232;23;20248;-57
2023/11/20 07:16:02;;;;;;;9.77;2.47;;;10.20;1.00;;;;;;6216982;23;20130;-56
2023/11/20 07:18:28;;;;;;;10.90;2.67;;;10.20;1.00;;;;;;6190622;23;20130;-56
2023/11/20 07:20:54;;;;;;;11.63;2.30;;;10.20;1.00;;;;;;6218722;23;20381;-57
2023/11/20 07:23:21;;;;;;;7.27;2.27;;;10.20;1.00;;;;;;6189588;23;20193;-58
2023/11/20 07:25:47;;;;;;;5.00;2.80;;;10.30;1.00;;;;;;6215393;23;20712;-58
2023/11/20 07:28:13;;;;;;;5.13;2.40;;;10.30;1.00;;;;;;6217212;23;20353;-59
2023/11/20 07:30:40;;;;;;;7.13;1.87;;;10.40;1.00;;;;;;6218061;23;20126;-59
2023/11/20 07:33:06;;;;;;;7.20;2.40;;;10.40;1.00;;;;;;6216457;23;20430;-57
2023/11/20 07:35:32;;;;;;;8.97;2.97;;;10.40;1.00;;;;;;6215150;23;20455;-57
2023/11/20 07:37:58;;;;;;;9.63;2.27;;;10.30;1.00;;;;;;6190466;23;20173;-57
2023/11/20 07:40:24;;;;;;;8.10;2.53;;;10.30;1.00;;;;;;6216378;23;20609;-56
2023/11/20 07:42:51;;;;;;;8.33;2.40;;;10.40;1.00;;;;;;6216431;23;20140;-59
2023/11/20 07:45:18;;;;;;;10.20;2.13;;;10.40;1.00;;;;;;6214716;23;20385;-59
2023/11/20 07:47:45;;;;;;;7.93;2.80;;;10.50;1.00;;;;;;6215795;23;20539;-58
2023/11/20 07:50:14;;;;;;;7.90;2.47;;;10.50;1.00;;;;;;6218465;23;20389;-60
2023/11/20 07:52:41;;;;;;;8.70;2.83;;;10.40;52.00;;;;;;6190705;23;20451;-57
2023/11/20 07:55:08;;;;;;;7.23;2.27;;;10.50;99.90;;;;;;6189065;23;20450;-59
2023/11/20 07:57:34;;;;;;;11.00;2.90;;;10.50;99.90;;;;;;6215872;23;20825;-58
2023/11/20 08:00:00;;;;;;;5.03;2.10;;;10.40;1.00;;;;;;6217193;23;20435;-59
2023/11/20 08:02:26;;;;;;;4.13;1.50;;;10.40;99.90;;;;;;6216810;23;20648;-58
2023/11/20 08:04:52;;;;;;;7.83;2.43;;;10.40;17.20;;;;;;6216732;23;20168;-55
2023/11/20 08:07:18;;;;;;;11.00;2.50;;;10.40;1.00;;;;;;6217209;23;20428;-57
2023/11/20 08:09:44;;;;;;;8.50;2.50;;;10.30;1.00;;;;;;6217743;23;20657;-57
2023/11/20 08:12:10;;;;;;;9.10;2.50;;;10.40;1.00;;;;;;6217079;23;20150;-59
2023/11/20 08:14:36;;;;;;;10.47;2.33;;;10.40;1.00;;;;;;6216282;23;20432;-58
2023/11/20 08:17:02;;;;;;;9.07;2.70;;;10.40;99.90;;;;;;6214990;23;20133;-58
2023/11/20 08:19:28;;;;;;;6.53;2.13;;;10.40;99.90;;;;;;6190064;23;20384;-57
2023/11/20 08:21:54;;;;;;;10.07;2.90;;;10.40;1.00;;;;;;6216034;23;20428;-59
2023/11/20 08:24:19;;;;;;;6.10;2.77;;;10.50;99.90;;;;;;6217072;23;20400;-57
2023/11/20 08:26:46;;;;;;;8.63;2.13;;;10.50;99.90;;;;;;6214502;23;20182;-58
2023/11/20 08:29:21;;;;;;;6.53;1.93;;;10.60;99.90;;;;;;6189945;23;20158;-57
2023/11/20 08:31:47;;;;;;;12.17;2.80;;;10.60;99.90;;;;;;6217665;23;20456;-58
2023/11/20 08:34:13;;;;;;;5.20;2.17;;;10.50;99.90;;;;;;6189948;23;20377;-57
2023/11/20 08:36:39;;;;;;;12.63;2.57;;;10.50;1.00;;;;;;6217031;23;20165;-59
2023/11/20 08:39:11;;;;;;;11.73;2.20;;;10.60;99.90;;;;;;6216632;23;20657;-58
2023/11/20 08:41:38;;;;;;;10.07;2.50;;;10.50;1.00;;;;;;6217218;23;20197;-56
2023/11/20 08:44:05;;;;;;;7.70;2.77;;;10.50;1.00;;;;;;6166628;23;20436;-59
2023/11/20 08:46:31;;;;;;;5.87;2.60;;;10.50;99.90;;;;;;6216381;23;20404;-60
2023/11/20 08:48:56;;;;;;;8.33;2.70;;;10.40;1.00;;;;;;6217097;23;20450;-59
2023/11/20 08:51:22;;;;;;;6.80;2.70;;;10.40;1.00;;;;;;6216468;23;20642;-59
2023/11/20 08:53:48;;;;;;;5.10;2.00;;;10.40;1.00;;;;;;6164591;23;20157;-59
2023/11/20 08:56:13;;;;;;;7.17;2.70;;;10.40;1.00;;;;;;6214452;23;20164;-56
2023/11/20 08:58:40;;;;;;;6.43;2.63;;;10.40;1.00;;;;;;6215007;23;20170;-60
2023/11/20 09:01:05;;;;;;;8.10;2.20;;;10.40;1.00;;;;;;6214182;23;20819;-59
2023/11/20 09:03:31;;;;;;;7.87;2.93;;;10.60;99.90;;;;;;6216201;23;20211;-58
2023/11/20 09:05:58;;;;;;;9.40;2.10;;;10.80;99.90;;;;;;6215135;23;20154;-57
2023/11/20 09:08:24;;;;;;;11.80;2.30;;;10.80;1.00;;;;;;6216738;23;20162;-58
2023/11/20 09:10:49;;;;;;;6.87;2.33;;;10.80;99.90;;;;;;6216460;23;20781;-58
2023/11/20 09:13:15;;;;;;;5.83;2.20;;;10.90;99.90;;;;;;6190246;23;20154;-57
2023/11/20 09:15:41;;;;;;;7.13;2.30;;;10.80;95.30;;;;;;6215510;23;20350;-57
2023/11/20 09:18:06;;;;;;;9.20;2.30;;;10.70;99.90;;;;;;6214348;23;20150;-55
2023/11/20 09:20:34;;;;;;;6.00;1.60;;;10.80;1.00;;;;;;6209012;23;20154;-55
2023/11/20 09:23:00;;;;;;;8.23;2.40;;;11.20;99.90;;;;;;6209483;23;20196;-57
2023/11/20 09:25:26;;;;;;;8.07;2.93;;;11.60;99.90;;;;;;6213091;23;20412;-57
2023/11/20 09:27:51;;;;;;;8.20;2.33;;;11.90;1.00;;;;;;6215131;23;20740;-58
2023/11/20 09:30:17;;;;;;;7.33;2.30;;;11.90;1.00;;;;;;6215303;23;20456;-59
2023/11/20 09:32:44;;;;;;;4.90;1.70;;;12.10;99.90;;;;;;6189035;23;20160;-59
2023/11/20 09:35:10;;;;;;;6.57;2.40;;;12.10;1.00;;;;;;6186129;23;20413;-57
2023/11/20 09:37:36;;;;;;;8.17;2.20;;;12.10;99.90;;;;;;6213086;23;20372;-59
2023/11/20 09:40:04;;;;;;;5.97;2.40;;;12.50;49.20;;;;;;6187541;23;20392;-59
2023/11/20 09:42:30;;;;;;;9.60;2.47;;;12.70;1.00;;;;;;6189139;23;20741;-57
2023/11/20 09:45:01;;;;;;;9.97;2.13;;;12.40;10.80;;;;;;6214948;23;20384;-58
2023/11/20 09:47:29;;;;;;;9.10;2.23;;;12.50;1.00;;;;;;6191596;23;20945;-59
2023/11/20 09:49:56;;;;;;;4.23;1.90;;;12.70;1.00;;;;;;6215276;23;20363;-58
2023/11/20 09:52:24;;;;;;;8.50;1.93;;;12.80;1.00;;;;;;6218955;23;20369;-59
2023/11/20 09:54:52;;;;;;;11.60;2.40;;;12.50;1.00;;;;;;6218564;23;20373;-58
2023/11/20 09:57:23;;;;;;;6.50;2.47;;;12.30;1.00;;;;;;6190197;23;20763;-59
2023/11/20 09:59:48;;;;;;;9.93;3.00;;;12.60;1.00;;;;;;6217847;23;20523;-59
2023/11/20 10:02:14;;;;;;;10.37;2.07;;;13.00;1.00;;;;;;6214291;23;20802;-57
2023/11/20 10:04:44;;;;;;;7.10;2.10;;;13.40;99.90;;;;;;6164240;23;20154;-58
2023/11/20 10:07:12;;;;;;;7.67;1.83;;;13.90;99.90;;;;;;6189047;23;20436;-59
2023/11/20 10:09:45;;;;;;;13.77;2.37;;;14.00;99.90;;;;;;6216299;23;20376;-58
2023/11/20 10:12:13;;;;;;;6.73;1.90;;;14.40;99.90;;;;;;6188951;23;20385;-58
2023/11/20 10:14:39;;;;;;;7.07;2.13;;;14.40;99.90;;;;;;6190053;23;20388;-59
2023/11/20 10:17:08;;;;;;;9.00;2.30;;;14.80;53.90;;;;;;6215263;23;20434;-58
2023/11/20 10:19:38;;;;;;;5.30;2.00;;;15.00;23.80;;;;;;6192145;23;20162;-57
2023/11/20 10:22:05;;;;;;;4.33;1.63;;;15.60;1.00;;;;;;6191743;23;20432;-57
2023/11/20 10:24:31;;;;;;;2.80;1.40;;;16.10;1.00;;;;;;6217115;23;20397;-56
2023/11/20 10:26:57;;;;;;;7.87;2.40;;;16.00;1.00;;;;;;6216040;23;20166;-59
2023/11/20 10:29:24;;;;;;;8.20;2.67;;;15.50;1.00;;;;;;6215423;23;20138;-58
2023/11/20 10:31:50;;;;;;;7.37;2.07;;;15.30;1.00;;;;;;6164930;23;20385;-59
2023/11/20 10:34:17;;;;;;;5.13;2.00;;;15.20;1.00;;;;;;6189740;23;20399;-58
2023/11/20 10:36:42;;;;;;;6.33;2.17;;;15.70;1.00;;;;;;6188534;23;20237;-56
2023/11/20 10:39:12;;;;;;;7.63;2.33;;;16.30;1.00;;;;;;6190101;23;20385;-56
2023/11/20 10:41:41;;;;;;;7.90;2.30;;;15.90;1.00;;;;;;6191597;23;20158;-58
2023/11/20 10:44:07;;;;;;;5.93;1.60;;;15.10;1.00;;;;;;6218511;23;20384;-58
2023/11/20 10:46:33;;;;;;;4.87;2.27;;;14.70;1.00;;;;;;6218074;23;20494;-57
2023/11/20 10:49:06;;;;;;;8.30;2.30;;;14.50;1.00;;;;;;6192270;23;20377;-58
2023/11/20 10:51:32;;;;;;;7.47;2.10;;;14.60;1.00;;;;;;6218498;23;20395;-59
2023/11/20 10:54:05;;;;;;;7.07;1.70;;;14.70;1.00;;;;;;6215946;23;20784;-58
2023/11/20 10:56:34;;;;;;;3.60;1.53;;;14.90;1.00;;;;;;6216010;23;20365;-57
2023/11/20 10:59:01;;;;;;;5.80;1.30;;;15.00;1.00;;;;;;6217028;23;20384;-56
2023/11/20 11:01:28;;;;;;;5.10;1.50;;;14.60;1.00;;;;;;6216820;23;20392;-59
2023/11/20 11:03:59;;;;;;;4.73;1.83;;;14.20;1.00;;;;;;6191207;23;20675;-57
2023/11/20 11:06:27;;;;;;;4.33;1.53;;;13.40;1.00;;;;;;6190600;23;20747;-59
2023/11/20 11:08:56;;;;;;;5.50;2.40;;;13.10;1.00;;;;;;6216919;23;20761;-56
2023/11/20 11:11:22;;;;;;;4.67;1.40;;;12.70;29.30;;;;;;6215886;23;20368;-58
2023/11/20 11:13:50;;;;;;;9.03;1.97;;;12.40;99.90;;;;;;6164384;23;20393;-59
2023/11/20 11:16:37;;;;;;;3.30;1.37;;;12.00;1.00;;;;;;6189453;23;20405;-55
2023/11/20 11:19:06;;;;;;;4.60;1.27;;;11.70;1.00;;;;;;6216584;23;20376;-59
2023/11/20 11:21:57;;;;;;;6.77;1.53;;;11.40;99.90;;;;;;6215912;23;20782;-57
2023/11/20 11:24:24;;;;;;;3.03;1.20;;;11.20;1.00;;;;;;6217638;23;20397;-58
2023/11/20 11:26:55;;;;;;;3.43;1.23;;;11.10;1.00;;;;;;6189765;23;20413;-57
2023/11/20 11:29:45;;;;;;;4.40;1.03;;;11.40;1.00;;;;;;6188046;23;20776;-57
2023/11/20 11:32:29;;;;;;;5.37;2.20;;;11.70;20.00;;;;;;6189035;23;20405;-58
2023/11/20 11:35:03;;;;;;;3.90;1.40;;;11.80;1.00;;;;;;6214768;23;20380;-56
2023/11/20 11:37:56;;;;;;;2.33;0.90;;;12.40;99.90;;;;;;6215395;23;20394;-57
2023/11/20 11:40:49;;;;;;;2.23;0.80;;;13.00;99.90;;;;;;6189105;23;20400;-57
2023/11/20 11:43:32;;;;;;;6.10;1.93;;;13.90;1.00;;;;;;6190875;23;20417;-57
2023/11/20 11:46:03;;;;;;;3.67;1.80;;;15.30;1.00;;;;;;6190355;23;20492;-58
2023/11/20 11:48:36;;;;;;;4.63;1.87;;;16.30;99.90;;;;;;6215527;23;20392;-57
2023/11/20 11:51:06;;;;;;;4.67;1.57;;;17.20;60.80;;;;;;6190550;23;20460;-57
2023/11/20 11:53:31;;;;;;;4.27;1.17;;;17.00;55.70;;;;;;6189334;23;20388;-58
2023/11/20 11:56:07;;;;;;;2.20;1.20;;;17.40;1.00;;;;;;6190716;23;21043;-59
2023/11/20 11:58:33;;;;;;;4.70;2.00;;;18.30;1.00;;;;;;6164811;23;20169;-59
2023/11/20 12:01:18;;;;;;;2.30;1.27;;;19.80;1.00;;;;;;6190373;23;20649;-57
2023/11/20 12:03:44;;;;;;;3.33;1.20;;;20.50;1.00;;;;;;6217409;23;20228;-57
2023/11/20 12:06:12;;;;;;;2.90;1.40;;;20.30;1.00;;;;;;6166017;23;20471;-58
2023/11/20 12:08:38;;;;;;;2.93;1.53;;;18.20;1.00;;;;;;6215792;23;20350;-63
2023/11/20 12:11:04;;;;;;;4.87;1.60;;;17.20;1.00;;;;;;6214607;23;20396;-57
2023/11/20 12:13:30;;;;;;;5.53;1.50;;;16.30;1.00;;;;;;6215600;23;20408;-58
2023/11/20 12:16:06;;;;;;;3.97;1.53;;;15.30;1.00;;;;;;6216730;23;20229;-56
2023/11/20 12:18:35;;;;;;;3.73;1.30;;;14.60;1.00;;;;;;6191115;23;20399;-58
2023/11/20 12:21:10;;;;;;;1.90;0.87;;;13.90;1.00;;;;;;6164289;23;20695;-57
2023/11/20 12:23:36;;;;;;;4.93;1.03;;;13.80;50.30;;;;;;6188099;23;20383;-58
2023/11/20 12:26:16;;;;;;;2.30;1.00;;;13.80;43.60;;;;;;6214975;23;20389;-57
2023/11/20 12:28:42;;;;;;;2.67;1.10;;;13.50;96.70;;;;;;6215122;23;20454;-57
2023/11/20 12:31:09;;;;;;;3.93;1.10;;;13.80;99.90;;;;;;6214985;23;20485;-55
2023/11/20 12:33:53;;;;;;;3.33;1.43;;;14.60;99.90;;;;;;6214452;23;20380;-57
2023/11/20 12:36:21;;;;;;;3.70;1.17;;;14.90;44.50;;;;;;6185963;23;20461;-58
2023/11/20 12:38:49;;;;;;;1.80;0.97;;;15.50;1.60;;;;;;6189593;23;20365;-58
2023/11/20 12:41:16;;;;;;;2.27;0.80;;;16.20;1.00;;;;;;6214470;23;20432;-59
2023/11/20 12:43:42;;;;;;;2.83;0.90;;;16.00;1.00;;;;;;6187855;23;20392;-58
2023/11/20 12:46:12;;;;;;;5.40;1.10;;;16.20;1.00;;;;;;6189363;23;20481;-61
2023/11/20 12:48:40;;;;;;;3.33;1.00;;;16.00;1.00;;;;;;6215550;23;20380;-59
2023/11/20 12:51:06;;;;;;;2.30;0.90;;;15.20;1.00;;;;;;6214491;23;20708;-58
2023/11/20 12:53:32;;;;;;;3.10;1.00;;;14.20;1.00;;;;;;6213794;23;20634;-58